sensor_id;sensor_type;location;lat;lon;timestamp;temperature;humidity
21039;DHT22;10678;51.002;4.786;2023-08-06T00:01:50;17.90;99.90
21039;DHT22;10678;51.002;4.786;2023-08-06T00:04:17;17.90;99.90
21039;DHT22;10678;51.002;4.786;2023-08-06T00:06:42;17.90;99.90
21039;DHT22;10678;51.002;4.786;2023-08-06T00:09:08;17.90;99.90
21039;DHT22;10678;51.002;4.786;2023-08-06T00:11:34;17.90;99.90
21039;DHT22;10678;51.002;4.786;2023-08-06T00:13:59;17.90;99.90
21039;DHT22;10678;51.002;4.786;2023-08-06T00:16:25;17.90;99.90
21039;DHT22;10678;51.002;4.786;2023-08-06T00:18:50;17.90;99.90
21039;DHT22;10678;51.002;4.786;2023-08-06T00:21:16;17.90;99.90
21039;DHT22;10678;51.002;4.786;2023-08-06T00:23:42;17.90;99.90
21039;DHT22;10678;51.002;4.786;2023-08-06T00:26:07;17.90;99.90
21039;DHT22;10678;51.002;4.786;2023-08-06T00:28:33;17.90;99.90
21039;DHT22;10678;51.002;4.786;2023-08-06T00:30:59;17.90;99.90
21039;DHT22;10678;51.002;4.786;2023-08-06T00:33:24;17.80;99.90
21039;DHT22;10678;51.002;4.786;2023-08-06T00:35:50;17.80;99.90
21039;DHT22;10678;51.002;4.786;2023-08-06T00:38:16;17.90;99.90
21039;DHT22;10678;51.002;4.786;2023-08-06T00:40:42;17.80;99.90
21039;DHT22;10678;51.002;4.786;2023-08-06T00:43:08;17.80;99.90
21039;DHT22;10678;51.002;4.786;2023-08-06T00:45:37;17.90;99.90
21039;DHT22;10678;51.002;4.786;2023-08-06T00:48:04;17.80;99.90
21039;DHT22;10678;51.002;4.786;2023-08-06T00:50:30;17.80;99.90
21039;DHT22;10678;51.002;4.786;2023-08-06T00:52:56;17.80;99.90
21039;DHT22;10678;51.002;4.786;2023-08-06T00:55:22;17.80;99.90
21039;DHT22;10678;51.002;4.786;2023-08-06T00:57:48;17.80;99.90
21039;DHT22;10678;51.002;4.786;2023-08-06T01:00:15;17.80;99.90
21039;DHT22;10678;51.002;4.786;2023-08-06T01:02:41;17.80;99.90
21039;DHT22;10678;51.002;4.786;2023-08-06T01:05:07;17.90;99.90
21039;DHT22;10678;51.002;4.786;2023-08-06T01:10:35;17.90;99.90
21039;DHT22;10678;51.002;4.786;2023-08-06T01:13:48;17.90;99.90
21039;DHT22;10678;51.002;4.786;2023-08-06T01:16:20;17.90;99.90
21039;DHT22;10678;51.002;4.786;2023-08-06T01:18:47;17.90;99.90
21039;DHT22;10678;51.002;4.786;2023-08-06T01:21:15;17.90;99.90
21039;DHT22;10678;51.002;4.786;2023-08-06T01:23:45;17.90;99.90
21039;DHT22;10678;51.002;4.786;2023-08-06T01:31:35;17.90;99.90
21039;DHT22;10678;51.002;4.786;2023-08-06T01:34:03;17.90;99.90
21039;DHT22;10678;51.002;4.786;2023-08-06T01:36:30;17.90;99.90
21039;DHT22;10678;51.002;4.786;2023-08-06T01:38:56;17.90;99.90
21039;DHT22;10678;51.002;4.786;2023-08-06T01:41:23;18.00;99.90
21039;DHT22;10678;51.002;4.786;2023-08-06T01:43:48;18.00;99.90
21039;DHT22;10678;51.002;4.786;2023-08-06T01:46:14;18.00;99.90
21039;DHT22;10678;51.002;4.786;2023-08-06T01:48:40;18.00;99.90
21039;DHT22;10678;51.002;4.786;2023-08-06T01:51:06;18.10;99.90
21039;DHT22;10678;51.002;4.786;2023-08-06T01:53:32;18.00;99.90
21039;DHT22;10678;51.002;4.786;2023-08-06T01:55:58;18.00;99.90
21039;DHT22;10678;51.002;4.786;2023-08-06T01:58:24;18.10;99.90
21039;DHT22;10678;51.002;4.786;2023-08-06T02:00:49;18.10;99.90
21039;DHT22;10678;51.002;4.786;2023-08-06T02:03:15;18.00;99.90
21039;DHT22;10678;51.002;4.786;2023-08-06T02:05:41;18.00;99.90
21039;DHT22;10678;51.002;4.786;2023-08-06T02:08:07;18.00;99.90
21039;DHT22;10678;51.002;4.786;2023-08-06T02:10:33;18.00;99.90
21039;DHT22;10678;51.002;4.786;2023-08-06T02:12:58;18.00;99.90
21039;DHT22;10678;51.002;4.786;2023-08-06T02:15:24;18.00;99.90
21039;DHT22;10678;51.002;4.786;2023-08-06T02:17:50;18.00;99.90
21039;DHT22;10678;51.002;4.786;2023-08-06T02:20:16;18.00;99.90
21039;DHT22;10678;51.002;4.786;2023-08-06T02:22:41;18.00;99.90
21039;DHT22;10678;51.002;4.786;2023-08-06T02:25:07;18.00;99.90
21039;DHT22;10678;51.002;4.786;2023-08-06T02:27:33;18.00;99.90
21039;DHT22;10678;51.002;4.786;2023-08-06T02:29:58;17.90;99.90
21039;DHT22;10678;51.002;4.786;2023-08-06T02:32:24;17.90;99.90
21039;DHT22;10678;51.002;4.786;2023-08-06T02:34:50;17.90;99.90
21039;DHT22;10678;51.002;4.786;2023-08-06T02:37:16;17.90;99.90
21039;DHT22;10678;51.002;4.786;2023-08-06T02:39:41;17.90;99.90
21039;DHT22;10678;51.002;4.786;2023-08-06T02:42:08;17.90;99.90
21039;DHT22;10678;51.002;4.786;2023-08-06T02:44:35;17.90;99.90
21039;DHT22;10678;51.002;4.786;2023-08-06T02:47:01;17.90;99.90
21039;DHT22;10678;51.002;4.786;2023-08-06T02:49:27;17.90;99.90
21039;DHT22;10678;51.002;4.786;2023-08-06T02:51:53;18.00;99.90
21039;DHT22;10678;51.002;4.786;2023-08-06T02:54:19;18.00;99.90
21039;DHT22;10678;51.002;4.786;2023-08-06T02:56:45;17.90;99.90
21039;DHT22;10678;51.002;4.786;2023-08-06T02:59:12;17.90;99.90
21039;DHT22;10678;51.002;4.786;2023-08-06T03:01:38;18.00;99.90
21039;DHT22;10678;51.002;4.786;2023-08-06T03:04:04;17.90;99.90
21039;DHT22;10678;51.002;4.786;2023-08-06T03:06:30;17.90;99.90
21039;DHT22;10678;51.002;4.786;2023-08-06T03:08:56;18.00;99.90
21039;DHT22;10678;51.002;4.786;2023-08-06T03:11:23;18.00;99.90
21039;DHT22;10678;51.002;4.786;2023-08-06T03:13:50;18.00;99.90
21039;DHT22;10678;51.002;4.786;2023-08-06T03:16:16;18.00;99.90
21039;DHT22;10678;51.002;4.786;2023-08-06T03:18:42;18.00;99.90
21039;DHT22;10678;51.002;4.786;2023-08-06T03:21:08;17.90;99.90
21039;DHT22;10678;51.002;4.786;2023-08-06T03:23:34;17.90;99.90
21039;DHT22;10678;51.002;4.786;2023-08-06T03:26:05;17.90;99.90
21039;DHT22;10678;51.002;4.786;2023-08-06T03:28:32;17.90;99.90
21039;DHT22;10678;51.002;4.786;2023-08-06T03:31:01;17.90;99.90
21039;DHT22;10678;51.002;4.786;2023-08-06T03:33:28;17.90;99.90
21039;DHT22;10678;51.002;4.786;2023-08-06T03:35:54;17.90;99.90
21039;DHT22;10678;51.002;4.786;2023-08-06T03:38:21;17.90;99.90
21039;DHT22;10678;51.002;4.786;2023-08-06T03:40:48;17.90;99.90
21039;DHT22;10678;51.002;4.786;2023-08-06T03:43:14;17.90;99.90
21039;DHT22;10678;51.002;4.786;2023-08-06T03:45:40;17.90;99.90
21039;DHT22;10678;51.002;4.786;2023-08-06T03:48:06;17.90;99.90
21039;DHT22;10678;51.002;4.786;2023-08-06T03:50:31;17.90;99.90
21039;DHT22;10678;51.002;4.786;2023-08-06T03:52:57;17.90;99.90
21039;DHT22;10678;51.002;4.786;2023-08-06T03:55:23;17.90;99.90
21039;DHT22;10678;51.002;4.786;2023-08-06T03:57:48;17.80;99.90
21039;DHT22;10678;51.002;4.786;2023-08-06T04:00:14;17.80;99.90
21039;DHT22;10678;51.002;4.786;2023-08-06T04:02:39;17.80;99.90
21039;DHT22;10678;51.002;4.786;2023-08-06T04:05:05;17.80;99.90
21039;DHT22;10678;51.002;4.786;2023-08-06T04:07:31;17.80;99.90
21039;DHT22;10678;51.002;4.786;2023-08-06T04:09:59;17.80;99.90
21039;DHT22;10678;51.002;4.786;2023-08-06T04:12:25;17.80;99.90
21039;DHT22;10678;51.002;4.786;2023-08-06T04:14:51;17.80;99.90
21039;DHT22;10678;51.002;4.786;2023-08-06T04:17:21;17.80;99.90
21039;DHT22;10678;51.002;4.786;2023-08-06T04:19:51;17.80;99.90
21039;DHT22;10678;51.002;4.786;2023-08-06T04:22:17;17.80;99.90
21039;DHT22;10678;51.002;4.786;2023-08-06T04:24:43;17.80;99.90
21039;DHT22;10678;51.002;4.786;2023-08-06T04:27:10;17.80;99.90
21039;DHT22;10678;51.002;4.786;2023-08-06T04:29:36;17.80;99.90
21039;DHT22;10678;51.002;4.786;2023-08-06T04:32:03;17.80;99.90
21039;DHT22;10678;51.002;4.786;2023-08-06T04:34:29;17.80;99.90
21039;DHT22;10678;51.002;4.786;2023-08-06T04:36:55;17.90;99.90
21039;DHT22;10678;51.002;4.786;2023-08-06T04:39:20;17.90;99.90
21039;DHT22;10678;51.002;4.786;2023-08-06T04:41:46;17.90;99.90
21039;DHT22;10678;51.002;4.786;2023-08-06T04:44:11;17.90;99.90
21039;DHT22;10678;51.002;4.786;2023-08-06T04:46:37;17.80;99.90
21039;DHT22;10678;51.002;4.786;2023-08-06T04:49:03;17.80;99.90
21039;DHT22;10678;51.002;4.786;2023-08-06T04:51:28;17.70;99.90
21039;DHT22;10678;51.002;4.786;2023-08-06T04:53:54;17.70;99.90
21039;DHT22;10678;51.002;4.786;2023-08-06T04:56:19;17.60;99.90
21039;DHT22;10678;51.002;4.786;2023-08-06T04:58:45;17.50;99.90
21039;DHT22;10678;51.002;4.786;2023-08-06T05:01:11;17.40;99.90
21039;DHT22;10678;51.002;4.786;2023-08-06T05:03:36;17.30;99.90
21039;DHT22;10678;51.002;4.786;2023-08-06T05:06:02;17.30;99.90
21039;DHT22;10678;51.002;4.786;2023-08-06T05:08:28;17.20;99.90
21039;DHT22;10678;51.002;4.786;2023-08-06T05:10:53;17.20;99.90
21039;DHT22;10678;51.002;4.786;2023-08-06T05:13:19;17.10;99.90
21039;DHT22;10678;51.002;4.786;2023-08-06T05:15:44;17.00;99.90
21039;DHT22;10678;51.002;4.786;2023-08-06T05:18:12;16.90;99.90
21039;DHT22;10678;51.002;4.786;2023-08-06T05:20:39;16.90;99.90
21039;DHT22;10678;51.002;4.786;2023-08-06T05:23:04;16.80;99.90
21039;DHT22;10678;51.002;4.786;2023-08-06T05:25:30;16.70;99.90
21039;DHT22;10678;51.002;4.786;2023-08-06T05:27:56;16.70;99.90
21039;DHT22;10678;51.002;4.786;2023-08-06T05:30:21;16.60;99.90
21039;DHT22;10678;51.002;4.786;2023-08-06T05:32:47;16.60;99.90
21039;DHT22;10678;51.002;4.786;2023-08-06T05:35:13;16.60;99.90
21039;DHT22;10678;51.002;4.786;2023-08-06T05:37:38;16.60;99.90
21039;DHT22;10678;51.002;4.786;2023-08-06T05:40:04;16.60;99.90
21039;DHT22;10678;51.002;4.786;2023-08-06T05:42:31;16.60;99.90
21039;DHT22;10678;51.002;4.786;2023-08-06T05:44:56;16.60;99.90
21039;DHT22;10678;51.002;4.786;2023-08-06T05:47:22;16.50;99.90
21039;DHT22;10678;51.002;4.786;2023-08-06T05:49:48;16.50;99.90
21039;DHT22;10678;51.002;4.786;2023-08-06T05:52:13;16.40;99.90
21039;DHT22;10678;51.002;4.786;2023-08-06T05:54:39;16.30;99.90
21039;DHT22;10678;51.002;4.786;2023-08-06T05:57:06;16.40;99.90
21039;DHT22;10678;51.002;4.786;2023-08-06T05:59:31;16.50;99.90
21039;DHT22;10678;51.002;4.786;2023-08-06T06:01:57;16.50;99.90
21039;DHT22;10678;51.002;4.786;2023-08-06T06:04:25;16.40;99.90
21039;DHT22;10678;51.002;4.786;2023-08-06T06:06:50;16.30;99.90
21039;DHT22;10678;51.002;4.786;2023-08-06T06:09:16;16.30;99.90
21039;DHT22;10678;51.002;4.786;2023-08-06T06:11:41;16.40;99.90
21039;DHT22;10678;51.002;4.786;2023-08-06T06:14:07;16.30;99.90
21039;DHT22;10678;51.002;4.786;2023-08-06T06:16:34;16.30;99.90
21039;DHT22;10678;51.002;4.786;2023-08-06T06:18:59;16.20;99.90
21039;DHT22;10678;51.002;4.786;2023-08-06T06:21:25;16.20;99.90
21039;DHT22;10678;51.002;4.786;2023-08-06T06:23:51;16.20;99.90
21039;DHT22;10678;51.002;4.786;2023-08-06T06:26:18;16.20;99.90
21039;DHT22;10678;51.002;4.786;2023-08-06T06:28:44;16.30;99.90
21039;DHT22;10678;51.002;4.786;2023-08-06T06:31:09;16.30;99.90
21039;DHT22;10678;51.002;4.786;2023-08-06T06:33:35;16.30;99.90
21039;DHT22;10678;51.002;4.786;2023-08-06T06:36:01;16.30;99.90
21039;DHT22;10678;51.002;4.786;2023-08-06T06:38:29;16.40;99.90
21039;DHT22;10678;51.002;4.786;2023-08-06T06:40:56;16.40;99.90
21039;DHT22;10678;51.002;4.786;2023-08-06T06:43:22;16.30;99.90
21039;DHT22;10678;51.002;4.786;2023-08-06T06:45:52;16.30;99.90
21039;DHT22;10678;51.002;4.786;2023-08-06T06:48:19;16.40;99.90
21039;DHT22;10678;51.002;4.786;2023-08-06T06:50:47;16.40;99.90
21039;DHT22;10678;51.002;4.786;2023-08-06T06:53:13;16.40;99.90
21039;DHT22;10678;51.002;4.786;2023-08-06T06:55:39;16.50;99.90
21039;DHT22;10678;51.002;4.786;2023-08-06T06:58:05;16.50;99.90
21039;DHT22;10678;51.002;4.786;2023-08-06T07:00:30;16.50;99.90
21039;DHT22;10678;51.002;4.786;2023-08-06T07:02:56;16.70;99.90
21039;DHT22;10678;51.002;4.786;2023-08-06T07:05:22;16.70;99.90
21039;DHT22;10678;51.002;4.786;2023-08-06T07:07:47;16.80;99.90
21039;DHT22;10678;51.002;4.786;2023-08-06T07:10:13;16.90;99.90
21039;DHT22;10678;51.002;4.786;2023-08-06T07:12:39;16.80;99.90
21039;DHT22;10678;51.002;4.786;2023-08-06T07:15:06;16.90;99.90
21039;DHT22;10678;51.002;4.786;2023-08-06T07:17:32;16.90;99.90
21039;DHT22;10678;51.002;4.786;2023-08-06T07:19:58;17.00;99.90
21039;DHT22;10678;51.002;4.786;2023-08-06T07:22:23;17.10;99.90
21039;DHT22;10678;51.002;4.786;2023-08-06T07:24:49;17.10;99.90
21039;DHT22;10678;51.002;4.786;2023-08-06T07:27:15;17.10;99.90
21039;DHT22;10678;51.002;4.786;2023-08-06T07:29:40;17.00;99.90
21039;DHT22;10678;51.002;4.786;2023-08-06T07:32:07;17.00;99.90
21039;DHT22;10678;51.002;4.786;2023-08-06T07:34:33;17.10;99.90
21039;DHT22;10678;51.002;4.786;2023-08-06T07:36:58;17.10;99.90
21039;DHT22;10678;51.002;4.786;2023-08-06T07:39:24;17.00;99.90
21039;DHT22;10678;51.002;4.786;2023-08-06T07:41:50;17.00;99.90
21039;DHT22;10678;51.002;4.786;2023-08-06T07:44:15;17.00;99.90
21039;DHT22;10678;51.002;4.786;2023-08-06T07:46:41;17.00;99.90
21039;DHT22;10678;51.002;4.786;2023-08-06T07:49:08;17.00;99.90
21039;DHT22;10678;51.002;4.786;2023-08-06T07:51:34;17.10;99.90
21039;DHT22;10678;51.002;4.786;2023-08-06T07:53:59;17.10;99.90
21039;DHT22;10678;51.002;4.786;2023-08-06T07:56:25;17.20;99.90
21039;DHT22;10678;51.002;4.786;2023-08-06T07:58:50;17.20;99.90
21039;DHT22;10678;51.002;4.786;2023-08-06T08:01:16;17.20;99.90
21039;DHT22;10678;51.002;4.786;2023-08-06T08:03:41;17.20;99.90
21039;DHT22;10678;51.002;4.786;2023-08-06T08:06:07;17.30;99.90
21039;DHT22;10678;51.002;4.786;2023-08-06T08:08:33;17.20;99.90
21039;DHT22;10678;51.002;4.786;2023-08-06T08:10:58;17.20;99.90
21039;DHT22;10678;51.002;4.786;2023-08-06T08:13:26;17.20;99.90
21039;DHT22;10678;51.002;4.786;2023-08-06T08:15:56;17.20;99.90
21039;DHT22;10678;51.002;4.786;2023-08-06T08:18:22;17.20;99.90
21039;DHT22;10678;51.002;4.786;2023-08-06T08:20:48;17.30;99.90
21039;DHT22;10678;51.002;4.786;2023-08-06T08:23:13;17.40;99.90
21039;DHT22;10678;51.002;4.786;2023-08-06T08:25:39;17.40;99.90
21039;DHT22;10678;51.002;4.786;2023-08-06T08:28:04;17.40;99.90
21039;DHT22;10678;51.002;4.786;2023-08-06T08:30:30;17.50;99.90
21039;DHT22;10678;51.002;4.786;2023-08-06T08:32:56;17.50;99.90
21039;DHT22;10678;51.002;4.786;2023-08-06T08:35:22;17.60;99.90
21039;DHT22;10678;51.002;4.786;2023-08-06T08:37:47;17.60;99.90
21039;DHT22;10678;51.002;4.786;2023-08-06T08:40:14;17.70;99.90
21039;DHT22;10678;51.002;4.786;2023-08-06T08:42:40;17.60;99.90
21039;DHT22;10678;51.002;4.786;2023-08-06T08:45:11;17.60;99.90
21039;DHT22;10678;51.002;4.786;2023-08-06T08:47:42;17.60;99.90
21039;DHT22;10678;51.002;4.786;2023-08-06T08:50:09;17.50;99.90
21039;DHT22;10678;51.002;4.786;2023-08-06T08:52:38;17.50;99.90
21039;DHT22;10678;51.002;4.786;2023-08-06T08:55:05;17.40;99.90
21039;DHT22;10678;51.002;4.786;2023-08-06T08:57:32;17.30;99.90
21039;DHT22;10678;51.002;4.786;2023-08-06T08:59:57;17.30;99.90
21039;DHT22;10678;51.002;4.786;2023-08-06T09:02:25;17.30;99.90
21039;DHT22;10678;51.002;4.786;2023-08-06T09:04:52;17.30;99.90
21039;DHT22;10678;51.002;4.786;2023-08-06T09:07:19;17.30;99.90
21039;DHT22;10678;51.002;4.786;2023-08-06T09:09:48;17.30;99.90
21039;DHT22;10678;51.002;4.786;2023-08-06T09:12:16;17.30;99.90
21039;DHT22;10678;51.002;4.786;2023-08-06T09:14:42;17.40;99.90
21039;DHT22;10678;51.002;4.786;2023-08-06T09:17:09;17.30;99.90
21039;DHT22;10678;51.002;4.786;2023-08-06T09:19:36;17.40;99.90
21039;DHT22;10678;51.002;4.786;2023-08-06T09:22:02;17.50;99.90
21039;DHT22;10678;51.002;4.786;2023-08-06T09:24:28;17.50;99.90
21039;DHT22;10678;51.002;4.786;2023-08-06T09:26:54;17.60;99.90
21039;DHT22;10678;51.002;4.786;2023-08-06T09:29:20;17.70;99.90
21039;DHT22;10678;51.002;4.786;2023-08-06T09:31:48;17.80;99.90
21039;DHT22;10678;51.002;4.786;2023-08-06T09:34:31;17.90;99.90
21039;DHT22;10678;51.002;4.786;2023-08-06T09:36:57;17.90;99.90
21039;DHT22;10678;51.002;4.786;2023-08-06T09:39:30;17.80;99.90
21039;DHT22;10678;51.002;4.786;2023-08-06T09:42:02;17.80;99.90
21039;DHT22;10678;51.002;4.786;2023-08-06T09:44:32;17.80;99.90
21039;DHT22;10678;51.002;4.786;2023-08-06T09:47:36;17.60;99.90
21039;DHT22;10678;51.002;4.786;2023-08-06T09:50:02;17.60;99.90
21039;DHT22;10678;51.002;4.786;2023-08-06T09:52:27;17.60;99.90
21039;DHT22;10678;51.002;4.786;2023-08-06T09:54:53;17.50;99.90
21039;DHT22;10678;51.002;4.786;2023-08-06T09:57:20;17.50;99.90
21039;DHT22;10678;51.002;4.786;2023-08-06T09:59:57;17.40;99.90
21039;DHT22;10678;51.002;4.786;2023-08-06T10:02:40;17.30;99.90
21039;DHT22;10678;51.002;4.786;2023-08-06T10:05:25;17.20;99.90
21039;DHT22;10678;51.002;4.786;2023-08-06T10:07:55;17.20;99.90
21039;DHT22;10678;51.002;4.786;2023-08-06T10:10:23;17.10;99.90
21039;DHT22;10678;51.002;4.786;2023-08-06T10:13:04;17.00;99.90
21039;DHT22;10678;51.002;4.786;2023-08-06T10:15:35;16.90;99.90
21039;DHT22;10678;51.002;4.786;2023-08-06T10:18:14;16.80;99.90
21039;DHT22;10678;51.002;4.786;2023-08-06T10:20:47;16.90;99.90
21039;DHT22;10678;51.002;4.786;2023-08-06T10:23:13;16.80;99.90
21039;DHT22;10678;51.002;4.786;2023-08-06T10:25:41;16.80;99.90
21039;DHT22;10678;51.002;4.786;2023-08-06T10:28:09;16.80;99.90
21039;DHT22;10678;51.002;4.786;2023-08-06T10:30:45;16.70;99.90
21039;DHT22;10678;51.002;4.786;2023-08-06T10:33:12;16.60;99.90
21039;DHT22;10678;51.002;4.786;2023-08-06T10:35:47;16.70;99.90
21039;DHT22;10678;51.002;4.786;2023-08-06T10:38:16;16.80;99.90
21039;DHT22;10678;51.002;4.786;2023-08-06T10:41:14;16.70;99.90
21039;DHT22;10678;51.002;4.786;2023-08-06T10:43:36;16.80;99.90
21039;DHT22;10678;51.002;4.786;2023-08-06T10:46:21;16.90;99.90
21039;DHT22;10678;51.002;4.786;2023-08-06T10:48:47;17.00;99.90
21039;DHT22;10678;51.002;4.786;2023-08-06T10:51:14;17.10;99.90
21039;DHT22;10678;51.002;4.786;2023-08-06T10:53:49;17.10;99.90
21039;DHT22;10678;51.002;4.786;2023-08-06T10:56:25;17.20;99.90
21039;DHT22;10678;51.002;4.786;2023-08-06T10:58:56;17.20;99.90
21039;DHT22;10678;51.002;4.786;2023-08-06T11:01:24;17.20;99.90
21039;DHT22;10678;51.002;4.786;2023-08-06T11:03:50;17.30;99.90
21039;DHT22;10678;51.002;4.786;2023-08-06T11:06:21;17.20;99.90
21039;DHT22;10678;51.002;4.786;2023-08-06T11:08:52;17.10;99.90
21039;DHT22;10678;51.002;4.786;2023-08-06T11:11:20;17.20;99.90
21039;DHT22;10678;51.002;4.786;2023-08-06T11:13:47;17.40;99.90
21039;DHT22;10678;51.002;4.786;2023-08-06T11:16:14;17.40;99.90
21039;DHT22;10678;51.002;4.786;2023-08-06T11:18:41;17.40;99.90
21039;DHT22;10678;51.002;4.786;2023-08-06T11:21:07;17.30;99.90
21039;DHT22;10678;51.002;4.786;2023-08-06T11:23:34;17.20;99.90
21039;DHT22;10678;51.002;4.786;2023-08-06T11:26:00;17.20;99.90
21039;DHT22;10678;51.002;4.786;2023-08-06T11:28:26;17.30;99.90
21039;DHT22;10678;51.002;4.786;2023-08-06T11:30:52;17.40;99.90
21039;DHT22;10678;51.002;4.786;2023-08-06T11:33:25;17.50;99.90
21039;DHT22;10678;51.002;4.786;2023-08-06T11:35:52;17.50;99.90
21039;DHT22;10678;51.002;4.786;2023-08-06T11:38:18;17.50;99.90
21039;DHT22;10678;51.002;4.786;2023-08-06T11:40:44;17.60;99.90
21039;DHT22;10678;51.002;4.786;2023-08-06T11:43:14;17.50;99.90
21039;DHT22;10678;51.002;4.786;2023-08-06T11:45:40;17.40;99.90
21039;DHT22;10678;51.002;4.786;2023-08-06T11:48:07;17.40;99.90
21039;DHT22;10678;51.002;4.786;2023-08-06T11:50:37;17.40;99.90
21039;DHT22;10678;51.002;4.786;2023-08-06T11:53:06;17.40;99.90
21039;DHT22;10678;51.002;4.786;2023-08-06T11:55:32;17.40;99.90
21039;DHT22;10678;51.002;4.786;2023-08-06T11:57:59;17.60;99.90
21039;DHT22;10678;51.002;4.786;2023-08-06T12:00:29;17.50;99.90
21039;DHT22;10678;51.002;4.786;2023-08-06T12:02:57;17.60;99.90
21039;DHT22;10678;51.002;4.786;2023-08-06T12:05:29;17.70;99.90
21039;DHT22;10678;51.002;4.786;2023-08-06T12:07:58;17.70;99.90
21039;DHT22;10678;51.002;4.786;2023-08-06T12:10:25;17.80;99.90
21039;DHT22;10678;51.002;4.786;2023-08-06T12:12:53;17.90;99.90
21039;DHT22;10678;51.002;4.786;2023-08-06T12:15:20;17.90;99.90
21039;DHT22;10678;51.002;4.786;2023-08-06T12:17:46;17.80;99.90
21039;DHT22;10678;51.002;4.786;2023-08-06T12:20:12;17.80;99.90
21039;DHT22;10678;51.002;4.786;2023-08-06T12:22:38;17.80;99.90
21039;DHT22;10678;51.002;4.786;2023-08-06T12:25:10;17.70;99.90
21039;DHT22;10678;51.002;4.786;2023-08-06T12:27:42;17.60;99.90
21039;DHT22;10678;51.002;4.786;2023-08-06T12:30:08;17.50;99.90
21039;DHT22;10678;51.002;4.786;2023-08-06T12:32:35;17.50;99.90
21039;DHT22;10678;51.002;4.786;2023-08-06T12:35:01;17.30;99.90
21039;DHT22;10678;51.002;4.786;2023-08-06T12:37:27;17.30;99.90
21039;DHT22;10678;51.002;4.786;2023-08-06T12:39:52;17.20;99.90
21039;DHT22;10678;51.002;4.786;2023-08-06T12:42:18;17.20;99.90
21039;DHT22;10678;51.002;4.786;2023-08-06T12:44:44;17.30;99.90
21039;DHT22;10678;51.002;4.786;2023-08-06T12:47:10;17.10;99.90
21039;DHT22;10678;51.002;4.786;2023-08-06T12:49:36;17.10;99.90
21039;DHT22;10678;51.002;4.786;2023-08-06T12:52:02;17.00;99.90
21039;DHT22;10678;51.002;4.786;2023-08-06T12:54:30;17.00;99.90
21039;DHT22;10678;51.002;4.786;2023-08-06T12:57:02;17.00;99.90
21039;DHT22;10678;51.002;4.786;2023-08-06T12:59:28;17.00;99.90
21039;DHT22;10678;51.002;4.786;2023-08-06T13:01:53;17.10;99.90
21039;DHT22;10678;51.002;4.786;2023-08-06T13:04:19;17.10;99.90
21039;DHT22;10678;51.002;4.786;2023-08-06T13:06:44;17.10;99.90
21039;DHT22;10678;51.002;4.786;2023-08-06T13:09:10;17.00;99.90
21039;DHT22;10678;51.002;4.786;2023-08-06T13:11:37;17.00;99.90
21039;DHT22;10678;51.002;4.786;2023-08-06T13:14:08;17.00;99.90
21039;DHT22;10678;51.002;4.786;2023-08-06T13:16:36;16.90;99.90
21039;DHT22;10678;51.002;4.786;2023-08-06T13:19:03;16.90;99.90
21039;DHT22;10678;51.002;4.786;2023-08-06T13:21:58;16.90;99.90
21039;DHT22;10678;51.002;4.786;2023-08-06T13:24:19;16.80;99.90
21039;DHT22;10678;51.002;4.786;2023-08-06T13:26:45;16.80;99.90
21039;DHT22;10678;51.002;4.786;2023-08-06T13:29:10;16.80;99.90
21039;DHT22;10678;51.002;4.786;2023-08-06T13:31:37;16.80;99.90
21039;DHT22;10678;51.002;4.786;2023-08-06T13:34:02;16.80;99.90
21039;DHT22;10678;51.002;4.786;2023-08-06T13:36:28;16.70;99.90
21039;DHT22;10678;51.002;4.786;2023-08-06T13:38:54;16.60;99.90
21039;DHT22;10678;51.002;4.786;2023-08-06T13:41:21;16.50;99.90
21039;DHT22;10678;51.002;4.786;2023-08-06T13:43:46;16.50;99.90
21039;DHT22;10678;51.002;4.786;2023-08-06T13:46:13;16.50;99.90
21039;DHT22;10678;51.002;4.786;2023-08-06T13:48:43;16.50;99.90
21039;DHT22;10678;51.002;4.786;2023-08-06T13:51:10;16.40;99.90
21039;DHT22;10678;51.002;4.786;2023-08-06T13:53:37;16.50;99.90
21039;DHT22;10678;51.002;4.786;2023-08-06T13:56:03;16.40;99.90
21039;DHT22;10678;51.002;4.786;2023-08-06T13:58:28;16.40;99.90
21039;DHT22;10678;51.002;4.786;2023-08-06T14:00:54;16.20;99.90
21039;DHT22;10678;51.002;4.786;2023-08-06T14:03:20;16.30;99.90
21039;DHT22;10678;51.002;4.786;2023-08-06T14:05:46;16.20;99.90
21039;DHT22;10678;51.002;4.786;2023-08-06T14:08:11;16.10;99.90
21039;DHT22;10678;51.002;4.786;2023-08-06T14:10:37;16.10;99.90
21039;DHT22;10678;51.002;4.786;2023-08-06T14:13:03;16.20;99.90
21039;DHT22;10678;51.002;4.786;2023-08-06T14:15:28;16.20;99.90
21039;DHT22;10678;51.002;4.786;2023-08-06T14:17:54;16.20;99.90
21039;DHT22;10678;51.002;4.786;2023-08-06T14:20:20;16.20;99.90
21039;DHT22;10678;51.002;4.786;2023-08-06T14:22:45;16.10;99.90
21039;DHT22;10678;51.002;4.786;2023-08-06T14:25:11;16.10;99.90
21039;DHT22;10678;51.002;4.786;2023-08-06T14:27:37;16.20;99.90
21039;DHT22;10678;51.002;4.786;2023-08-06T14:30:06;16.10;99.90
21039;DHT22;10678;51.002;4.786;2023-08-06T14:32:32;16.10;99.90
21039;DHT22;10678;51.002;4.786;2023-08-06T14:34:58;16.20;99.90
21039;DHT22;10678;51.002;4.786;2023-08-06T14:37:25;16.10;99.90
21039;DHT22;10678;51.002;4.786;2023-08-06T14:39:51;16.20;99.90
21039;DHT22;10678;51.002;4.786;2023-08-06T14:42:17;16.20;99.90
21039;DHT22;10678;51.002;4.786;2023-08-06T14:44:43;16.20;99.90
21039;DHT22;10678;51.002;4.786;2023-08-06T14:47:09;16.30;99.90
21039;DHT22;10678;51.002;4.786;2023-08-06T14:49:34;16.20;99.90
21039;DHT22;10678;51.002;4.786;2023-08-06T14:52:00;16.10;99.90
21039;DHT22;10678;51.002;4.786;2023-08-06T14:54:27;16.10;99.90
21039;DHT22;10678;51.002;4.786;2023-08-06T14:56:53;16.20;99.90
21039;DHT22;10678;51.002;4.786;2023-08-06T14:59:18;16.20;99.90
21039;DHT22;10678;51.002;4.786;2023-08-06T15:01:44;16.30;99.90
21039;DHT22;10678;51.002;4.786;2023-08-06T15:04:10;16.40;99.90
21039;DHT22;10678;51.002;4.786;2023-08-06T15:06:35;16.50;99.90
21039;DHT22;10678;51.002;4.786;2023-08-06T15:09:01;16.60;99.90
21039;DHT22;10678;51.002;4.786;2023-08-06T15:11:27;16.70;99.90
21039;DHT22;10678;51.002;4.786;2023-08-06T15:13:53;16.80;99.90
21039;DHT22;10678;51.002;4.786;2023-08-06T15:16:19;16.80;99.90
21039;DHT22;10678;51.002;4.786;2023-08-06T15:18:44;16.90;99.90
21039;DHT22;10678;51.002;4.786;2023-08-06T15:21:10;16.90;99.90
21039;DHT22;10678;51.002;4.786;2023-08-06T15:23:36;16.90;99.90
21039;DHT22;10678;51.002;4.786;2023-08-06T15:26:04;16.90;99.90
21039;DHT22;10678;51.002;4.786;2023-08-06T15:28:30;16.80;99.90
21039;DHT22;10678;51.002;4.786;2023-08-06T15:30:55;16.70;99.90
21039;DHT22;10678;51.002;4.786;2023-08-06T15:33:21;16.70;99.90
21039;DHT22;10678;51.002;4.786;2023-08-06T15:35:47;16.70;99.90
21039;DHT22;10678;51.002;4.786;2023-08-06T15:38:14;16.60;99.90